createdAt,value
2017-12-13T00:01:36.291Z,95694
2017-12-13T00:07:04.449Z,95692
2017-12-13T00:12:32.608Z,95701
2017-12-13T00:18:00.812Z,95696
2017-12-13T00:23:29.759Z,95702
2017-12-13T00:28:57.902Z,95699
2017-12-13T00:34:26.120Z,95692
2017-12-13T00:39:54.309Z,95702
2017-12-13T00:45:22.454Z,95710
2017-12-13T00:50:50.631Z,95706
2017-12-13T00:56:27.025Z,95701
2017-12-13T01:01:55.214Z,95701
2017-12-13T01:07:23.371Z,95707
2017-12-13T01:12:51.550Z,95729
2017-12-13T01:18:19.703Z,95726
2017-12-13T01:23:49.080Z,95724
2017-12-13T01:29:18.631Z,95733
2017-12-13T01:34:46.792Z,95729
2017-12-13T01:40:14.963Z,95734
2017-12-13T01:45:43.414Z,95749
2017-12-13T01:51:11.836Z,95739
2017-12-13T01:56:40.269Z,95727
2017-12-13T02:02:08.429Z,95737
2017-12-13T02:07:36.591Z,95740
2017-12-13T02:13:05.508Z,95729
2017-12-13T02:18:34.431Z,95726
2017-12-13T02:24:02.591Z,95725
2017-12-13T02:29:31.527Z,95722
2017-12-13T02:35:12.523Z,95711
2017-12-13T02:40:58.489Z,95721
2017-12-13T02:46:28.370Z,95720
2017-12-13T02:51:56.527Z,95717
2017-12-13T02:57:24.702Z,95702
2017-12-13T03:02:52.849Z,95703
2017-12-13T03:08:21.002Z,95702
2017-12-13T03:13:55.099Z,95692
2017-12-13T03:19:23.242Z,95690
2017-12-13T03:24:51.423Z,95694
2017-12-13T03:30:19.583Z,95695
2017-12-13T03:35:47.716Z,95694
2017-12-13T03:41:15.886Z,95691
2017-12-13T03:46:44.805Z,95689
2017-12-13T03:52:12.971Z,95685
2017-12-13T03:57:41.124Z,95691
2017-12-13T04:03:09.268Z,95683
2017-12-13T04:08:37.413Z,95686
2017-12-13T04:14:05.553Z,95686
2017-12-13T04:19:34.677Z,95692
2017-12-13T04:25:02.866Z,95691
2017-12-13T04:30:57.792Z,95697
2017-12-13T04:36:25.966Z,95700
2017-12-13T04:41:54.160Z,95704
2017-12-13T04:47:22.328Z,95711
2017-12-13T04:52:50.482Z,95705
2017-12-13T04:58:18.890Z,95705
2017-12-13T05:03:47.113Z,95704
2017-12-13T05:09:22.098Z,95707
2017-12-13T05:14:50.234Z,95720
2017-12-13T05:20:18.469Z,95705
2017-12-13T05:25:46.610Z,95698
2017-12-13T05:31:15.527Z,95702
2017-12-13T05:36:45.612Z,95711
2017-12-13T05:42:13.796Z,95703
2017-12-13T05:47:42.162Z,95700
2017-12-13T05:53:13.054Z,95701
2017-12-13T05:58:41.217Z,95702
2017-12-13T06:04:09.377Z,95694
2017-12-13T06:09:37.512Z,95696
2017-12-13T06:15:06.416Z,95699
2017-12-13T06:20:34.567Z,95682
2017-12-13T06:26:03.476Z,95679
2017-12-13T06:31:31.645Z,95678
2017-12-13T06:37:00.626Z,95680
2017-12-13T06:42:28.793Z,95670
2017-12-13T06:47:57.694Z,95679
2017-12-13T06:53:25.837Z,95675
2017-12-13T06:58:53.983Z,95679
2017-12-13T07:04:22.151Z,95674
2017-12-13T07:09:50.321Z,95662
2017-12-13T07:15:18.465Z,95670
2017-12-13T07:20:46.640Z,95671
2017-12-13T07:26:14.783Z,95652
2017-12-13T07:31:42.909Z,95647
2017-12-13T07:37:11.068Z,95639
2017-12-13T07:42:39.217Z,95620
2017-12-13T07:48:07.356Z,95624
2017-12-13T07:53:35.492Z,95613
2017-12-13T07:59:03.653Z,95616
2017-12-13T08:04:31.845Z,95633
2017-12-13T08:10:00.790Z,95615
2017-12-13T08:15:28.955Z,95615
2017-12-13T08:20:57.892Z,95613
2017-12-13T08:26:26.113Z,95607
2017-12-13T08:31:54.256Z,95604
2017-12-13T08:37:22.396Z,95606
2017-12-13T08:42:50.535Z,95605
2017-12-13T08:48:18.656Z,95596
2017-12-13T08:53:46.827Z,95604
2017-12-13T08:59:15.742Z,95594
2017-12-13T09:04:43.906Z,95594
2017-12-13T09:10:12.091Z,95601
2017-12-13T09:15:40.996Z,95581
2017-12-13T09:21:09.143Z,95568
2017-12-13T09:26:38.051Z,95567
2017-12-13T09:32:06.196Z,95561
2017-12-13T09:37:35.132Z,95562
2017-12-13T09:43:03.274Z,95557
2017-12-13T09:48:32.487Z,95549
2017-12-13T09:54:00.638Z,95522
2017-12-13T09:59:29.529Z,95520
2017-12-13T10:04:57.712Z,95520
2017-12-13T10:10:25.847Z,95508
2017-12-13T10:15:53.990Z,95490
2017-12-13T10:21:22.124Z,95494
2017-12-13T10:26:50.277Z,95481
2017-12-13T10:32:20.448Z,95470
2017-12-13T10:37:48.597Z,95445
2017-12-13T10:43:16.758Z,95441
2017-12-13T10:48:44.894Z,95436
2017-12-13T10:54:13.055Z,95433
2017-12-13T10:59:41.202Z,95409
2017-12-13T11:05:09.341Z,95403
2017-12-13T11:10:37.487Z,95404
2017-12-13T11:16:05.627Z,95386
2017-12-13T11:21:33.762Z,95372
2017-12-13T11:27:01.916Z,95360
2017-12-13T11:32:30.080Z,95337
2017-12-13T11:37:58.206Z,95328
2017-12-13T11:43:26.364Z,95312
2017-12-13T11:48:54.497Z,95291
2017-12-13T11:54:23.398Z,95273
2017-12-13T11:59:51.570Z,95254
2017-12-13T12:05:19.707Z,95237
2017-12-13T12:10:47.844Z,95210
2017-12-13T12:16:15.974Z,95174
2017-12-13T12:21:44.114Z,95155
2017-12-13T12:27:12.257Z,95131
2017-12-13T12:32:43.068Z,95129
2017-12-13T12:38:11.192Z,95110
2017-12-13T12:43:40.458Z,95102
2017-12-13T12:49:08.588Z,95096
2017-12-13T12:54:36.725Z,95086
2017-12-13T13:00:04.917Z,95089
2017-12-13T13:05:33.064Z,95084
2017-12-13T13:11:01.221Z,95065
2017-12-13T13:16:29.373Z,95051
2017-12-13T13:21:57.724Z,95040
2017-12-13T13:27:25.896Z,95023
2017-12-13T13:32:54.045Z,95005
2017-12-13T13:38:22.199Z,95009
2017-12-13T13:43:51.101Z,95000
2017-12-13T13:49:19.280Z,94996
2017-12-13T13:54:47.429Z,94987
2017-12-13T14:00:15.565Z,94971
2017-12-13T14:05:43.718Z,94959
2017-12-13T14:11:11.853Z,94946
2017-12-13T14:16:39.996Z,94945
2017-12-13T14:22:08.136Z,94948
2017-12-13T14:27:36.267Z,94930
2017-12-13T14:33:04.415Z,94924
2017-12-13T14:38:33.315Z,94908
2017-12-13T14:44:01.475Z,94900
2017-12-13T14:49:30.386Z,94900
2017-12-13T14:55:01.819Z,94880
2017-12-13T15:00:29.950Z,94871
2017-12-13T15:05:58.094Z,94862
2017-12-13T15:11:26.246Z,94866
2017-12-13T15:16:55.171Z,94846
2017-12-13T15:22:23.321Z,94855
2017-12-13T15:27:52.225Z,94841
2017-12-13T15:33:20.340Z,94827
2017-12-13T15:38:48.498Z,94827
2017-12-13T15:44:17.532Z,94817
2017-12-13T15:49:46.440Z,94808
2017-12-13T15:55:14.578Z,94781
2017-12-13T16:00:43.484Z,94771
2017-12-13T16:06:11.651Z,94751
2017-12-13T16:11:40.582Z,94742
2017-12-13T16:17:08.716Z,94740
2017-12-13T16:22:37.624Z,94723
2017-12-13T16:28:05.760Z,94709
2017-12-13T16:33:33.902Z,94697
2017-12-13T16:39:02.059Z,94704
2017-12-13T16:44:30.242Z,94682
2017-12-13T16:49:58.380Z,94668
2017-12-13T16:55:26.652Z,94653
2017-12-13T17:00:54.826Z,94661
2017-12-13T17:06:22.982Z,94646
2017-12-13T17:11:51.107Z,94649
2017-12-13T17:17:19.239Z,94635
2017-12-13T17:22:48.237Z,94625
2017-12-13T17:28:17.069Z,94632
2017-12-13T17:33:46.165Z,94621
2017-12-13T17:39:15.058Z,94618
2017-12-13T17:44:44.113Z,94620
2017-12-13T17:50:12.237Z,94622
2017-12-13T17:55:40.367Z,94619
2017-12-13T18:01:08.541Z,94627
2017-12-13T18:06:37.524Z,94633
2017-12-13T18:12:05.670Z,94646
2017-12-13T18:17:35.515Z,94649
2017-12-13T18:23:04.454Z,94644
2017-12-13T18:28:33.396Z,94643
2017-12-13T18:34:02.372Z,94605
2017-12-13T18:39:30.521Z,94573
2017-12-13T18:44:58.715Z,94615
2017-12-13T18:50:26.849Z,94608
2017-12-13T18:55:54.991Z,94616
2017-12-13T19:01:25.406Z,94595
2017-12-13T19:06:54.049Z,94557
2017-12-13T19:12:22.395Z,94559
2017-12-13T19:17:50.702Z,94534
2017-12-13T19:23:18.963Z,94520
2017-12-13T19:28:47.144Z,94501
2017-12-13T19:34:16.094Z,94489
2017-12-13T19:39:44.442Z,94469
2017-12-13T19:45:14.656Z,94456
2017-12-13T19:50:42.970Z,94444
2017-12-13T19:56:11.199Z,94436
2017-12-13T20:01:43.467Z,94419
2017-12-13T20:07:12.510Z,94411
2017-12-13T20:12:40.724Z,94388
2017-12-13T20:18:08.907Z,94366
2017-12-13T20:23:37.172Z,94336
2017-12-13T20:29:05.370Z,94310
2017-12-13T20:34:34.520Z,94287
2017-12-13T20:40:03.404Z,94260
2017-12-13T20:45:32.400Z,94238
2017-12-13T20:51:00.721Z,94198
2017-12-13T20:56:30.999Z,94192
2017-12-13T21:01:59.217Z,94192
2017-12-13T21:07:27.632Z,94226
2017-12-13T21:12:56.080Z,94230
2017-12-13T21:18:26.521Z,94244
2017-12-13T21:23:54.787Z,94231
2017-12-13T21:29:23.762Z,94212
2017-12-13T21:34:52.950Z,94207
2017-12-13T21:40:23.188Z,94170
2017-12-13T21:45:51.482Z,94160
2017-12-13T21:51:20.451Z,94139
2017-12-13T21:56:48.622Z,94124
2017-12-13T22:02:16.806Z,94102
2017-12-13T22:07:44.980Z,94081
2017-12-13T22:13:13.917Z,94089
2017-12-13T22:18:59.495Z,94081
2017-12-13T22:24:27.680Z,94080
2017-12-13T22:29:56.692Z,94076
2017-12-13T22:35:26.849Z,94036
2017-12-13T22:40:59.011Z,94011
2017-12-13T22:46:28.190Z,94003
2017-12-13T22:51:58.366Z,93977
2017-12-13T22:57:26.563Z,93959
2017-12-13T23:02:54.795Z,93924
2017-12-13T23:08:22.985Z,93902
2017-12-13T23:13:51.159Z,93919
2017-12-13T23:19:19.363Z,93924
2017-12-13T23:24:47.557Z,93892
2017-12-13T23:30:15.746Z,93913
2017-12-13T23:35:43.946Z,93937
2017-12-13T23:41:12.111Z,93941
2017-12-13T23:46:40.287Z,93939
2017-12-13T23:52:08.494Z,93930
2017-12-13T23:57:36.918Z,93894
